Rickenbacker International Airport
KLCK : now visible

Airfield :











YOU CAN JOIN US ON...

 
LOGIN :

Register | Disclaimer

   EN    FR    IT 

 









Legend :    VFR   Marginal VFR   IFR   Intensive IFR   Very Intensive IFR
Visi :
Ceiling :
>= 8 km
>= 3000ft
5 to 8 km
1000 to 3000 ft
1500m to 5 km
500 to 1000 ft
800 to 1500m
200 to 500 ft
< 800m
< 200 ft
Symbols :   Thunderstorms  Fog  Heavy snow  Heavy precipitations  Wind > 20 kt






- Airport Elevation : 744 ft


KLCK - Rickenbacker International

CURRENT METAR :
  • 140055Z AUTO 06005KT 10SM SCT055 BKN080 04/03 A2986 RMK AO2 T00390025

EXPIRED METARs :
  • 132355Z AUTO 08005KT 10SM SCT065 OVC090 04/02 A2989 RMK AO2 T00390022 10130 21087
  • 132255Z AUTO 07005KT 10SM SCT020 BKN042 BKN100 03/02 A2990 RMK AO2 T00340015

TAF KLCK
Valid from the 14 at 00:00 until the 15 at 00:00 UTC


140013Z 1400/1424 07005KT P6SM SCT020 BKN040 BKN100
FM140100 08003KT P6SM VCSH BKN025
FM140800 08004KT 4SM -RA BR OVC008
FM141900 31011KT P6SM OVC015
FM142200 28011KT P6SM BKN025



MET'MAP, your aeronautical weather chart ! - Copyright ORBIFLY December 2007 - Disclaimer

ORBIFLY MET'MAP TEAM :

Programming & Development : Alexandra Zaïnal
Concept & original design : Baudouin d'Aumeries
Assistance for programming : Marc-Olivier Méhu
Technical & hardware support : Manuel Goepfert

Contact : metmap@orbifly.com




SOURCES & CREDITS :

   NOAA       Earth
Advisory